Argyle, Wisconsin
Current Conditions -  °F | °C
As of 7:15 PM on Monday 22 Dec 2014 (Local Time) from KEFT Reporting Station
Moderate Fog Moderate Fog  
Wind Chill: 29°   Ceiling: 300
Heat Index: 36°   Visibility: 0.5mi
Dew Point: 36°   Wind: 9mph
Humidity: 100%   Direction: 90°E
Pressure: 29.6"   Gusts: NA
Location:  42.7°N, 89.87°W
Report Text: KEFT 230115Z AUTO 09008KT 1/2SM FG OVC003 02/02 A2960 RMK AO2
Loading
Personal Weather Stations






























Interactive Weather Map New forecast layout! Learn more

10-Day Weather Forecast

Advertisements
Track Severe Weather on mobile